createdAt,value
2022-11-02T00:01:36.860Z,101101.78
2022-11-02T00:04:04.982Z,101099.16
2022-11-02T00:06:33.044Z,101094.78
2022-11-02T00:09:01.139Z,101096.44
2022-11-02T00:11:29.222Z,101095.47
2022-11-02T00:13:57.290Z,101088.47
2022-11-02T00:16:26.444Z,101081.56
2022-11-02T00:18:58.264Z,101091.38
2022-11-02T00:21:28.203Z,101091.38
2022-11-02T00:23:59.035Z,101085.06
2022-11-02T00:26:29.125Z,101079.75
2022-11-02T00:28:57.396Z,101087.03
2022-11-02T00:31:25.457Z,101079.03
2022-11-02T00:33:54.887Z,101070.97
2022-11-02T00:36:24.790Z,101080.72
2022-11-02T00:38:52.776Z,101071.88
2022-11-02T00:41:22.045Z,101066.44
2022-11-02T00:43:50.029Z,101068.25
2022-11-02T00:46:18.002Z,101059.22
2022-11-02T00:48:45.955Z,101051.25
2022-11-02T00:51:15.259Z,101064.63
2022-11-02T00:53:43.182Z,101052.19
2022-11-02T00:56:11.439Z,101060.00
2022-11-02T00:58:39.388Z,101049.25
2022-11-02T01:01:08.509Z,101052.91
2022-11-02T01:03:36.721Z,101043.22
2022-11-02T01:06:09.539Z,101049.41
2022-11-02T01:08:39.023Z,101042.38
2022-11-02T01:11:11.624Z,101031.78
2022-11-02T01:13:39.568Z,101039.63
2022-11-02T01:16:08.503Z,101032.63
2022-11-02T01:18:36.469Z,101018.41
2022-11-02T01:21:04.643Z,101031.78
2022-11-02T01:23:33.281Z,101026.53
2022-11-02T01:26:05.626Z,101029.19
2022-11-02T01:28:33.635Z,101021.34
2022-11-02T01:31:01.988Z,101024.94
2022-11-02T01:33:30.038Z,101019.53
2022-11-02T01:35:58.241Z,101015.09
2022-11-02T01:38:26.508Z,101008.97
2022-11-02T01:40:54.512Z,101006.22
2022-11-02T01:43:28.392Z,101020.59
2022-11-02T01:46:00.977Z,101010.00
2022-11-02T01:48:34.073Z,101016.84
2022-11-02T01:51:05.667Z,101012.56
2022-11-02T01:53:36.902Z,101018.84
2022-11-02T01:56:06.630Z,101017.75
2022-11-02T01:58:36.031Z,101011.56
2022-11-02T02:01:04.046Z,101014.19
2022-11-02T02:03:33.970Z,100999.16
2022-11-02T02:06:06.430Z,100996.44
2022-11-02T02:08:37.260Z,100992.78
2022-11-02T02:11:20.078Z,100993.66
2022-11-02T02:13:49.467Z,100996.22
2022-11-02T02:16:22.598Z,100990.69
2022-11-02T02:18:56.737Z,100988.06
2022-11-02T02:21:39.841Z,100986.03
2022-11-02T02:24:25.175Z,100973.41
2022-11-02T02:27:03.637Z,100969.66
2022-11-02T02:29:45.066Z,100975.91
2022-11-02T02:32:17.875Z,100966.88
2022-11-02T02:34:52.516Z,100962.22
2022-11-02T02:37:26.227Z,100963.81
2022-11-02T02:40:01.527Z,100957.53
2022-11-02T02:42:35.651Z,100975.28
2022-11-02T02:45:12.821Z,100972.59
2022-11-02T02:47:46.302Z,100979.84
2022-11-02T02:50:18.114Z,100977.97
2022-11-02T02:52:48.149Z,100986.09
2022-11-02T02:55:19.751Z,100974.56
2022-11-02T02:57:49.003Z,100979.22
2022-11-02T03:00:19.802Z,100972.22
2022-11-02T03:03:00.961Z,100973.34
2022-11-02T03:05:32.164Z,100966.81
2022-11-02T03:08:06.692Z,100956.63
2022-11-02T03:10:41.335Z,100969.41
2022-11-02T03:13:24.410Z,100956.50
2022-11-02T03:16:00.155Z,100958.44
2022-11-02T03:18:40.893Z,100951.31
2022-11-02T03:21:21.242Z,100948.56
2022-11-02T03:23:55.837Z,100949.47
2022-11-02T03:26:33.075Z,100948.41
2022-11-02T03:29:06.596Z,100943.03
2022-11-02T03:31:41.516Z,100936.59
2022-11-02T03:34:21.859Z,100934.69
2022-11-02T03:36:55.856Z,100941.78
2022-11-02T03:39:30.455Z,100948.75
2022-11-02T03:42:03.265Z,100944.19
2022-11-02T03:44:34.915Z,100947.63
2022-11-02T03:47:05.359Z,100951.03
2022-11-02T03:49:34.452Z,100949.22
2022-11-02T03:52:09.563Z,100945.53
2022-11-02T03:54:44.779Z,100950.56
2022-11-02T03:57:21.144Z,100956.72
2022-11-02T03:59:49.093Z,100954.13
2022-11-02T04:02:19.684Z,100956.78
2022-11-02T04:04:51.707Z,100960.28
2022-11-02T04:07:25.656Z,100962.03
2022-11-02T04:09:53.690Z,100956.69
2022-11-02T04:12:39.291Z,100959.31
2022-11-02T04:15:08.911Z,100958.16
2022-11-02T04:17:55.693Z,100957.31
2022-11-02T04:20:23.730Z,100959.13
2022-11-02T04:23:09.215Z,100963.47
2022-11-02T04:25:37.259Z,100964.34
2022-11-02T04:28:09.209Z,100959.97
2022-11-02T04:30:37.160Z,100963.56
2022-11-02T04:33:23.820Z,100958.44
2022-11-02T04:35:51.746Z,100960.19
2022-11-02T04:38:37.381Z,100962.94
2022-11-02T04:41:22.992Z,100961.06
2022-11-02T04:43:50.962Z,100959.31
2022-11-02T04:46:18.923Z,100966.47
2022-11-02T04:48:48.431Z,100954.97
2022-11-02T04:51:16.423Z,100964.66
2022-11-02T04:53:44.519Z,100953.13
2022-11-02T04:56:12.496Z,100956.69
2022-11-02T04:58:40.728Z,100947.84
2022-11-02T05:01:11.797Z,100954.13
2022-11-02T05:03:39.935Z,100950.53
2022-11-02T05:06:11.679Z,100951.31
2022-11-02T05:08:40.565Z,100967.47
2022-11-02T05:11:09.930Z,100949.94
2022-11-02T05:13:38.964Z,100953.50
2022-11-02T05:16:08.455Z,100946.41
2022-11-02T05:18:36.504Z,100953.75
2022-11-02T05:21:04.831Z,100947.59
2022-11-02T05:23:34.172Z,100947.53
2022-11-02T05:26:03.700Z,100942.16
2022-11-02T05:28:32.625Z,100951.03
2022-11-02T05:31:01.757Z,100947.44
2022-11-02T05:33:31.067Z,100944.81
2022-11-02T05:36:00.535Z,100943.13
2022-11-02T05:38:29.272Z,100948.31
2022-11-02T05:41:00.607Z,100944.66
2022-11-02T05:43:28.828Z,100947.28
2022-11-02T05:45:58.120Z,100942.78
2022-11-02T05:48:27.941Z,100946.47
2022-11-02T05:50:57.038Z,100945.63
2022-11-02T05:53:25.069Z,100954.66
2022-11-02T05:55:53.116Z,100948.63
2022-11-02T05:58:22.469Z,100946.00
2022-11-02T06:00:50.430Z,100951.53
2022-11-02T06:03:18.487Z,100943.66
2022-11-02T06:05:46.683Z,100943.88
2022-11-02T06:08:14.687Z,100952.69
2022-11-02T06:10:43.361Z,100946.53
2022-11-02T06:13:11.522Z,100952.66
2022-11-02T06:15:40.957Z,100952.66
2022-11-02T06:18:21.895Z,100953.50
2022-11-02T06:20:50.851Z,100953.44
2022-11-02T06:23:18.839Z,100954.09
2022-11-02T06:25:52.154Z,100964.72
2022-11-02T06:28:20.278Z,100965.38
2022-11-02T06:30:50.384Z,100963.47
2022-11-02T06:33:19.775Z,100965.19
2022-11-02T06:35:49.219Z,100973.22
2022-11-02T06:38:17.511Z,100969.63
2022-11-02T06:40:53.863Z,100967.81
2022-11-02T06:43:22.495Z,100983.91
2022-11-02T06:45:55.771Z,100977.75
2022-11-02T06:48:25.615Z,100960.34
2022-11-02T06:50:54.619Z,100991.13
2022-11-02T06:53:22.627Z,100989.59
2022-11-02T06:55:54.647Z,100993.31
2022-11-02T06:58:23.431Z,100989.03
2022-11-02T07:00:58.525Z,100989.97
2022-11-02T07:03:26.894Z,100993.53
2022-11-02T07:05:55.489Z,100977.75
2022-11-02T07:08:23.646Z,100993.47
2022-11-02T07:10:51.777Z,100983.50
2022-11-02T07:13:19.841Z,100995.13
2022-11-02T07:15:47.852Z,100984.53
2022-11-02T07:18:17.540Z,100991.41
2022-11-02T07:20:45.461Z,101004.94
2022-11-02T07:23:13.470Z,100996.91
2022-11-02T07:25:41.886Z,100999.53
2022-11-02T07:28:10.122Z,100995.91
2022-11-02T07:30:38.132Z,100998.41
2022-11-02T07:33:06.426Z,101002.69
2022-11-02T07:35:36.196Z,101001.56
2022-11-02T07:38:05.837Z,100998.81
2022-11-02T07:40:36.120Z,100994.34
2022-11-02T07:43:04.542Z,100991.56
2022-11-02T07:45:33.174Z,101008.63
2022-11-02T07:48:01.114Z,101004.25
2022-11-02T07:50:29.116Z,101006.16
2022-11-02T07:53:00.211Z,101003.38
2022-11-02T07:55:30.021Z,101004.94
2022-11-02T07:58:00.067Z,101021.78
2022-11-02T08:00:30.322Z,100998.56
2022-11-02T08:02:59.690Z,101011.09
2022-11-02T08:05:28.982Z,101002.94
2022-11-02T08:08:03.184Z,101006.25
2022-11-02T08:10:35.489Z,101017.00
2022-11-02T08:13:07.963Z,100989.66
2022-11-02T08:15:36.295Z,101012.50
2022-11-02T08:18:06.650Z,101011.44
2022-11-02T08:20:36.570Z,101015.00
2022-11-02T08:23:07.571Z,101019.41
2022-11-02T08:25:36.216Z,101013.03
2022-11-02T08:28:05.846Z,101011.16
2022-11-02T08:30:34.920Z,101021.75
2022-11-02T08:33:04.856Z,101027.72
2022-11-02T08:35:33.307Z,101028.34
2022-11-02T08:38:01.465Z,101028.31
2022-11-02T08:40:32.083Z,101022.03
2022-11-02T08:43:01.074Z,101031.34
2022-11-02T08:45:35.041Z,101030.41
2022-11-02T08:48:11.157Z,101033.03
2022-11-02T08:50:39.510Z,101055.09
2022-11-02T08:53:08.306Z,101054.25
2022-11-02T08:55:37.670Z,101048.91
2022-11-02T08:58:05.941Z,101044.50
2022-11-02T09:00:35.714Z,101059.63
2022-11-02T09:03:05.799Z,101051.94
2022-11-02T09:05:35.889Z,101054.50
2022-11-02T09:08:05.938Z,101059.84
2022-11-02T09:10:36.186Z,101047.19
2022-11-02T09:13:08.411Z,101059.84
2022-11-02T09:15:37.828Z,101053.63
2022-11-02T09:18:07.413Z,101054.28
2022-11-02T09:20:35.964Z,101064.84
2022-11-02T09:23:03.983Z,101061.28
2022-11-02T09:25:31.946Z,101067.53
2022-11-02T09:28:00.373Z,101069.34
2022-11-02T09:30:29.809Z,101060.28
2022-11-02T09:32:58.981Z,101071.06
2022-11-02T09:35:28.613Z,101082.56
2022-11-02T09:37:56.579Z,101071.94
2022-11-02T09:40:26.305Z,101070.13
2022-11-02T09:43:05.009Z,101065.94
2022-11-02T09:45:37.510Z,101086.78
2022-11-02T09:48:17.057Z,101083.19
2022-11-02T09:50:55.370Z,101083.41
2022-11-02T09:53:32.888Z,101089.84
2022-11-02T09:56:03.295Z,101083.63
2022-11-02T09:58:37.276Z,101087.50
2022-11-02T10:01:14.717Z,101084.78
2022-11-02T10:03:59.840Z,101070.56
2022-11-02T10:06:30.177Z,101098.88
2022-11-02T10:09:05.476Z,101086.16
2022-11-02T10:11:43.151Z,101076.00
2022-11-02T10:14:16.683Z,101090.50
2022-11-02T10:16:52.142Z,101093.16
2022-11-02T10:19:24.986Z,101080.81
2022-11-02T10:21:58.913Z,101086.47
2022-11-02T10:24:33.994Z,101091.00
2022-11-02T10:27:08.002Z,101095.78
2022-11-02T10:29:45.329Z,101109.28
2022-11-02T10:32:15.944Z,101111.34
2022-11-02T10:34:54.148Z,101118.81
2022-11-02T10:37:48.624Z,101129.56
2022-11-02T10:40:27.820Z,101127.44
2022-11-02T10:43:12.890Z,101130.78
2022-11-02T10:46:00.230Z,101123.84
2022-11-02T10:48:39.297Z,101116.16
2022-11-02T10:51:12.342Z,101132.88
2022-11-02T10:53:43.364Z,101119.97
2022-11-02T10:56:16.545Z,101125.47
2022-11-02T10:58:51.685Z,101120.94
2022-11-02T11:01:19.676Z,101124.22
2022-11-02T11:04:00.739Z,101132.72
2022-11-02T11:06:34.846Z,101139.22
2022-11-02T11:09:07.333Z,101143.09
2022-11-02T11:11:38.095Z,101157.16
2022-11-02T11:19:55.809Z,101166.66
2022-11-02T11:22:27.186Z,101165.56
2022-11-02T11:25:15.611Z,101167.34
2022-11-02T11:27:46.501Z,101161.94
2022-11-02T11:33:20.388Z,101165.25
2022-11-02T11:35:51.924Z,101161.91
2022-11-02T11:38:22.522Z,101153.88
2022-11-02T11:40:54.977Z,101161.63
2022-11-02T11:43:25.830Z,101167.41
2022-11-02T11:46:04.020Z,101190.56
2022-11-02T11:48:38.974Z,101181.56
2022-11-02T11:51:26.595Z,101190.16
2022-11-02T11:54:17.994Z,101199.09
2022-11-02T11:56:46.321Z,101201.44
2022-11-02T11:59:23.063Z,101207.09
2022-11-02T12:01:54.862Z,101198.81
2022-11-02T12:04:34.689Z,101202.03
2022-11-02T12:07:32.353Z,101183.34
2022-11-02T12:10:12.224Z,101198.69
2022-11-02T12:13:05.547Z,101200.69
2022-11-02T12:15:53.851Z,101222.28
2022-11-02T12:18:34.402Z,101214.47
2022-11-02T12:21:16.083Z,101210.16
2022-11-02T12:24:00.818Z,101208.63
2022-11-02T12:26:38.594Z,101198.50
2022-11-02T12:29:19.496Z,101203.44
2022-11-02T12:31:56.721Z,101225.94
2022-11-02T12:34:46.518Z,101271.31
2022-11-02T12:37:40.792Z,101276.38
2022-11-02T12:43:09.316Z,101274.28
2022-11-02T12:45:47.175Z,101268.00
2022-11-02T12:48:23.384Z,101286.47
2022-11-02T12:51:00.880Z,101276.94
2022-11-02T12:53:50.001Z,101261.31
2022-11-02T12:56:24.084Z,101270.25
2022-11-02T12:58:53.218Z,101273.28
2022-11-02T13:01:27.939Z,101284.03
2022-11-02T13:04:01.719Z,101291.25
2022-11-02T13:06:33.706Z,101292.84
2022-11-02T13:09:08.166Z,101301.19
2022-11-02T13:11:42.677Z,101306.66
2022-11-02T13:14:15.736Z,101312.50
2022-11-02T13:16:51.397Z,101318.63
2022-11-02T13:19:23.106Z,101330.75
2022-11-02T13:21:55.321Z,101373.72
2022-11-02T13:24:28.091Z,101361.25
2022-11-02T13:27:14.698Z,101365.78
2022-11-02T13:29:56.094Z,101354.34
2022-11-02T13:32:33.764Z,101346.19
2022-11-02T13:35:07.664Z,101375.78
2022-11-02T13:37:40.566Z,101386.72
2022-11-02T13:40:16.892Z,101400.13
2022-11-02T13:43:30.233Z,101393.56
2022-11-02T13:46:22.586Z,101397.09
2022-11-02T13:49:02.490Z,101412.47
2022-11-02T13:51:37.554Z,101414.41
2022-11-02T13:54:12.093Z,101418.16
2022-11-02T13:56:40.522Z,101410.94
2022-11-02T13:59:11.544Z,101410.63
2022-11-02T14:01:42.517Z,101405.53
2022-11-02T14:04:14.037Z,101393.66
2022-11-02T14:06:49.163Z,101407.06
2022-11-02T14:09:33.496Z,101398.03
2022-11-02T14:12:28.119Z,101398.31
2022-11-02T14:15:42.408Z,101403.84
2022-11-02T14:18:15.584Z,101395.53
2022-11-02T14:20:45.009Z,101386.22
2022-11-02T14:23:36.116Z,101394.16
2022-11-02T14:26:04.149Z,101391.25
2022-11-02T14:28:42.527Z,101389.53
2022-11-02T14:31:41.124Z,101392.09
2022-11-02T14:34:39.467Z,101398.78
2022-11-02T14:37:25.356Z,101406.53
2022-11-02T14:40:02.528Z,101400.81
2022-11-02T14:42:53.320Z,101405.81
2022-11-02T14:45:30.941Z,101406.41
2022-11-02T14:48:05.216Z,101415.56
2022-11-02T14:50:34.399Z,101406.78
2022-11-02T14:53:06.801Z,101412.34
2022-11-02T14:55:37.513Z,101412.28
2022-11-02T14:58:10.842Z,101406.03
2022-11-02T15:00:54.221Z,101413.44
2022-11-02T15:03:33.589Z,101412.66
2022-11-02T15:06:04.558Z,101418.91
2022-11-02T15:08:34.382Z,101417.44
2022-11-02T15:11:42.542Z,101417.78
2022-11-02T15:14:33.533Z,101416.91
2022-11-02T15:17:02.290Z,101418.16
2022-11-02T15:19:46.166Z,101414.66
2022-11-02T15:22:39.211Z,101405.97
2022-11-02T15:25:14.499Z,101407.88
2022-11-02T15:27:45.062Z,101401.75
2022-11-02T15:30:16.014Z,101406.41
2022-11-02T15:32:48.342Z,101419.06
2022-11-02T15:35:21.561Z,101408.56
2022-11-02T15:38:16.085Z,101412.34
2022-11-02T15:40:48.913Z,101416.97
2022-11-02T15:43:40.372Z,101406.44
2022-11-02T15:46:23.156Z,101397.84
2022-11-02T15:48:58.589Z,101406.88
2022-11-02T15:51:37.902Z,101422.94
2022-11-02T15:54:14.819Z,101420.41
2022-11-02T15:56:50.792Z,101424.13
2022-11-02T15:59:42.747Z,101428.75
2022-11-02T16:02:23.243Z,101436.88
2022-11-02T16:04:54.144Z,101436.91
2022-11-02T16:07:38.028Z,101435.22
2022-11-02T16:10:14.045Z,101437.13
2022-11-02T16:12:42.015Z,101435.44
2022-11-02T16:15:13.520Z,101440.88
2022-11-02T16:17:42.162Z,101444.47
2022-11-02T16:20:12.811Z,101419.13
2022-11-02T16:22:47.493Z,101452.69
2022-11-02T16:25:21.159Z,101455.50
2022-11-02T16:27:49.620Z,101455.56
2022-11-02T16:30:19.810Z,101457.50
2022-11-02T16:32:50.610Z,101457.63
2022-11-02T16:35:21.198Z,101458.66
2022-11-02T16:37:51.232Z,101455.22
2022-11-02T16:40:21.129Z,101436.91
2022-11-02T16:42:52.696Z,101453.63
2022-11-02T16:45:40.304Z,101455.44
2022-11-02T16:48:20.137Z,101459.09
2022-11-02T16:51:18.466Z,101459.13
2022-11-02T16:53:47.939Z,101459.28
2022-11-02T16:56:27.658Z,101469.13
2022-11-02T16:59:01.712Z,101466.47
2022-11-02T17:01:37.395Z,101470.91
2022-11-02T17:04:16.991Z,101468.34
2022-11-02T17:06:45.533Z,101468.34
2022-11-02T17:09:24.961Z,101463.13
2022-11-02T17:11:54.324Z,101473.00
2022-11-02T17:14:23.813Z,101464.19
2022-11-02T17:17:04.975Z,101469.53
2022-11-02T17:19:47.517Z,101476.59
2022-11-02T17:22:29.672Z,101419.59
2022-11-02T17:25:13.404Z,101485.56
2022-11-02T17:27:42.620Z,101489.16
2022-11-02T17:30:42.732Z,101504.31
2022-11-02T17:33:23.459Z,101498.19
2022-11-02T17:35:53.568Z,101497.31
2022-11-02T17:38:24.895Z,101508.94
2022-11-02T17:40:54.893Z,101499.28
2022-11-02T17:43:23.428Z,101502.78
2022-11-02T17:45:56.325Z,101508.25
2022-11-02T17:48:25.348Z,101504.84
2022-11-02T17:50:54.797Z,101512.03
2022-11-02T17:53:23.990Z,101516.47
2022-11-02T17:55:52.288Z,101513.88
2022-11-02T17:58:21.636Z,101508.59
2022-11-02T18:00:49.751Z,101509.44
2022-11-02T18:03:22.336Z,101503.25
2022-11-02T18:05:55.785Z,101510.47
2022-11-02T18:08:26.879Z,101509.44
2022-11-02T18:10:54.880Z,101514.72
2022-11-02T18:13:25.304Z,101518.28
2022-11-02T18:15:53.289Z,101511.28
2022-11-02T18:18:21.297Z,101511.34
2022-11-02T18:20:49.286Z,101508.59
2022-11-02T18:23:19.670Z,101511.34
2022-11-02T18:25:48.054Z,101504.19
2022-11-02T18:28:16.008Z,101507.75
2022-11-02T18:30:45.472Z,101512.19
2022-11-02T18:33:14.365Z,101508.72
2022-11-02T18:35:44.044Z,101507.88
2022-11-02T18:38:12.871Z,101504.38
2022-11-02T18:40:40.877Z,101507.03
2022-11-02T18:43:09.160Z,101508.88
2022-11-02T18:45:37.561Z,101500.16
2022-11-02T18:48:07.942Z,101505.44
2022-11-02T18:50:36.172Z,101509.88
2022-11-02T18:53:04.142Z,101502.84
2022-11-02T18:55:32.104Z,101503.69
2022-11-02T18:58:00.039Z,101498.41
2022-11-02T19:00:27.989Z,101501.91
2022-11-02T19:02:55.901Z,101500.19
2022-11-02T19:05:42.881Z,101500.22
2022-11-02T19:08:28.369Z,101506.44
2022-11-02T19:10:56.393Z,101499.31
2022-11-02T19:13:24.433Z,101501.97
2022-11-02T19:15:52.572Z,101501.16
2022-11-02T19:18:20.591Z,101501.28
2022-11-02T19:20:49.971Z,101496.81
2022-11-02T19:23:17.936Z,101496.81
2022-11-02T19:25:51.404Z,101495.13
2022-11-02T19:28:19.411Z,101489.75
2022-11-02T19:30:47.423Z,101496.94
2022-11-02T19:33:15.514Z,101494.28
2022-11-02T19:35:43.458Z,101488.03
2022-11-02T19:38:12.765Z,101487.13
2022-11-02T19:40:40.689Z,101479.19
2022-11-02T19:43:08.998Z,101484.53
2022-11-02T19:45:37.131Z,101488.94
2022-11-02T19:48:05.642Z,101496.00
2022-11-02T19:50:33.941Z,101483.56
2022-11-02T19:53:01.866Z,101485.31
2022-11-02T19:55:31.430Z,101477.31
2022-11-02T19:57:59.409Z,101476.41
2022-11-02T20:00:27.424Z,101474.66
2022-11-02T20:02:55.469Z,101474.69
2022-11-02T20:05:23.550Z,101468.47
2022-11-02T20:07:52.597Z,101476.50
2022-11-02T20:10:20.573Z,101480.97
2022-11-02T20:12:49.844Z,101473.03
2022-11-02T20:15:17.850Z,101485.34
2022-11-02T20:18:13.467Z,101488.09
2022-11-02T20:20:33.795Z,101487.31
2022-11-02T20:23:02.426Z,101488.22
2022-11-02T20:25:30.414Z,101480.25
2022-11-02T20:27:59.756Z,101484.72
2022-11-02T20:30:27.801Z,101477.66
2022-11-02T20:32:55.740Z,101479.47
2022-11-02T20:35:25.835Z,101472.44
2022-11-02T20:37:55.210Z,101477.78
2022-11-02T20:40:23.772Z,101477.72
2022-11-02T20:42:51.722Z,101468.16
2022-11-02T20:45:23.430Z,101462.25
2022-11-02T20:47:51.867Z,101461.56
2022-11-02T20:50:24.812Z,101457.34
2022-11-02T20:52:55.307Z,101449.59
2022-11-02T20:55:23.737Z,101456.75
2022-11-02T20:57:51.837Z,101449.69
2022-11-02T21:00:21.446Z,101446.28
2022-11-02T21:02:49.698Z,101447.22
2022-11-02T21:05:18.044Z,101455.22
2022-11-02T21:07:46.228Z,101446.44
2022-11-02T21:10:14.204Z,101456.19
2022-11-02T21:12:59.671Z,101457.06
2022-11-02T21:15:29.025Z,101451.81
2022-11-02T21:17:57.010Z,101450.06
2022-11-02T21:20:40.218Z,101444.78
2022-11-02T21:23:08.725Z,101443.94
2022-11-02T21:25:37.044Z,101441.31
2022-11-02T21:28:05.463Z,101451.91
2022-11-02T21:30:34.876Z,101449.25
2022-11-02T21:33:03.328Z,101453.75
2022-11-02T21:35:31.629Z,101448.44
2022-11-02T21:38:02.417Z,101439.69
2022-11-02T21:40:34.739Z,101435.25
2022-11-02T21:43:02.948Z,101426.41
2022-11-02T21:45:34.935Z,101429.97
2022-11-02T21:48:07.533Z,101424.69
2022-11-02T21:50:35.487Z,101430.91
2022-11-02T21:53:03.654Z,101425.59
2022-11-02T21:55:31.848Z,101428.16
2022-11-02T21:57:59.798Z,101415.78
2022-11-02T22:00:48.046Z,101424.56
2022-11-02T22:03:16.451Z,101422.78
2022-11-02T22:05:57.237Z,101420.06
2022-11-02T22:08:40.402Z,101419.16
2022-11-02T22:11:12.744Z,101415.59
2022-11-02T22:13:41.885Z,101416.44
2022-11-02T22:16:11.490Z,101418.16
2022-11-02T22:18:40.800Z,101409.25
2022-11-02T22:21:08.925Z,101412.81
2022-11-02T22:23:36.938Z,101405.75
2022-11-02T22:26:07.578Z,101405.78
2022-11-02T22:28:38.894Z,101403.94
2022-11-02T22:31:08.062Z,101407.50
2022-11-02T22:33:36.444Z,101401.25
2022-11-02T22:36:07.356Z,101390.63
2022-11-02T22:38:51.271Z,101395.94
2022-11-02T22:41:21.269Z,101395.00
2022-11-02T22:43:50.049Z,101395.88
2022-11-02T22:46:18.343Z,101383.47
2022-11-02T22:48:47.001Z,101388.81
2022-11-02T22:51:16.333Z,101387.91
2022-11-02T22:53:44.316Z,101381.75
2022-11-02T22:56:13.891Z,101371.13
2022-11-02T22:58:43.638Z,101373.75
2022-11-02T23:01:14.386Z,101371.03
2022-11-02T23:03:42.402Z,101370.16
2022-11-02T23:06:11.026Z,101371.03
2022-11-02T23:08:42.359Z,101365.66
2022-11-02T23:11:22.530Z,101359.44
2022-11-02T23:13:53.221Z,101359.47
2022-11-02T23:16:23.215Z,101360.31
2022-11-02T23:19:20.312Z,101355.88
2022-11-02T23:22:15.017Z,101349.72
2022-11-02T23:25:03.134Z,101356.81
2022-11-02T23:27:31.224Z,101353.28
2022-11-02T23:30:16.707Z,101348.81
2022-11-02T23:32:44.649Z,101345.31
2022-11-02T23:35:30.185Z,101336.47
2022-11-02T23:38:05.885Z,101328.44
2022-11-02T23:40:35.214Z,101329.38
2022-11-02T23:43:03.469Z,101328.59
2022-11-02T23:45:31.596Z,101322.38
2022-11-02T23:48:00.966Z,101322.50
2022-11-02T23:50:49.187Z,101328.69
2022-11-02T23:53:36.150Z,101325.13
2022-11-02T23:56:24.900Z,101310.06
2022-11-02T23:59:06.696Z,101310.97
